Time;durP1;ratioP1;P1;durP2;ratioP2;P2;SDS_P1;SDS_P2;PMS_P1;PMS_P2;Temp;Humidity;BMP_temperature;BMP_pressure;BME280_temperature;BME280_humidity;BME280_pressure;Samples;Min_cycle;Max_cycle;Signal;HPM_P1;HPM_P2
2023/04/01 01:46:14;;;;;;;2.80;1.30;;;10.00;1.00;;;;;;5083820;27;20660;-73
2023/04/01 01:48:42;;;;;;;7.33;1.63;;;10.10;1.00;;;;;;5069201;28;20466;-73
2023/04/01 01:51:08;;;;;;;3.10;1.60;;;10.30;1.00;;;;;;5050308;28;20906;-74
2023/04/01 01:53:34;;;;;;;4.87;1.40;;;10.40;1.00;;;;;;5052979;28;20438;-73
2023/04/01 01:55:59;;;;;;;4.73;1.13;;;10.60;1.00;;;;;;5047197;28;20189;-74
2023/04/01 01:58:30;;;;;;;1.80;1.23;;;10.70;1.00;;;;;;5050980;28;20453;-74
2023/04/01 02:01:01;;;;;;;3.30;1.40;;;10.80;1.00;;;;;;5057076;28;20667;-74
2023/04/01 02:03:31;;;;;;;4.20;1.20;;;10.80;1.00;;;;;;5061689;28;20442;-73
2023/04/01 02:06:00;;;;;;;6.77;1.43;;;10.80;1.00;;;;;;5055558;28;20479;-73
2023/04/01 02:08:38;;;;;;;4.00;2.23;;;10.90;1.00;;;;;;5045205;28;20468;-74
2023/04/01 02:11:07;;;;;;;3.67;1.77;;;11.00;1.00;;;;;;5058903;28;20467;-74
2023/04/01 02:13:42;;;;;;;4.70;1.30;;;11.10;1.00;;;;;;5057671;28;20454;-73
2023/04/01 02:16:20;;;;;;;3.10;1.20;;;11.10;1.00;;;;;;5047447;28;20459;-74
2023/04/01 02:18:49;;;;;;;4.77;1.33;;;11.20;1.00;;;;;;5061414;28;20442;-77
2023/04/01 02:21:16;;;;;;;3.90;1.23;;;11.20;1.00;;;;;;5065291;28;20423;-74
2023/04/01 02:23:42;;;;;;;3.77;1.47;;;11.30;1.00;;;;;;5081274;28;20495;-74
2023/04/01 02:26:10;;;;;;;4.03;1.30;;;11.20;1.00;;;;;;5047269;28;20447;-75
2023/04/01 02:28:38;;;;;;;6.50;1.60;;;11.30;1.00;;;;;;5056806;28;20423;-74
2023/04/01 02:31:03;;;;;;;3.40;1.40;;;11.30;1.00;;;;;;5045056;28;20447;-74
2023/04/01 02:33:30;;;;;;;3.10;1.27;;;11.50;1.00;;;;;;5053925;28;20791;-73
2023/04/01 02:35:57;;;;;;;3.87;1.20;;;11.30;1.00;;;;;;5053641;28;20267;-73
2023/04/01 02:38:23;;;;;;;2.50;1.23;;;11.40;1.00;;;;;;5048238;28;20443;-74
2023/04/01 02:40:55;;;;;;;3.60;1.50;;;11.40;1.00;;;;;;5056313;28;20693;-73
2023/04/01 02:43:21;;;;;;;4.40;1.23;;;11.40;1.00;;;;;;5042832;28;20428;-74
2023/04/01 02:45:46;;;;;;;2.43;0.87;;;11.40;1.00;;;;;;5059397;28;20469;-74
2023/04/01 02:48:13;;;;;;;2.73;1.07;;;11.30;1.00;;;;;;5057769;28;20338;-73
2023/04/01 02:50:39;;;;;;;5.93;1.17;;;11.40;1.00;;;;;;5063716;28;20200;-74
2023/04/01 02:53:06;;;;;;;2.67;1.40;;;11.40;1.00;;;;;;5047141;28;21166;-74
2023/04/01 02:55:32;;;;;;;4.17;1.30;;;11.40;1.00;;;;;;5046919;28;20252;-75
2023/04/01 02:57:57;;;;;;;3.73;1.53;;;11.40;1.00;;;;;;5043181;28;21038;-75
2023/04/01 03:00:23;;;;;;;3.53;1.20;;;11.40;1.00;;;;;;5037751;28;20512;-74
2023/04/01 03:02:49;;;;;;;4.50;1.53;;;11.40;1.00;;;;;;5039815;28;20186;-73
2023/04/01 03:05:14;;;;;;;4.10;1.20;;;11.40;1.00;;;;;;5041608;28;20304;-73
2023/04/01 03:07:40;;;;;;;3.77;1.20;;;11.40;1.00;;;;;;5041841;28;20189;-74
2023/04/01 03:10:07;;;;;;;4.87;1.43;;;11.40;1.00;;;;;;5045556;28;20238;-73
2023/04/01 03:12:32;;;;;;;2.67;1.10;;;11.50;1.00;;;;;;5042560;28;20173;-74
2023/04/01 03:14:58;;;;;;;2.83;1.43;;;11.50;1.00;;;;;;5044046;28;20896;-73
2023/04/01 03:17:23;;;;;;;5.27;1.27;;;11.50;1.00;;;;;;5051674;28;20185;-73
2023/04/01 03:19:49;;;;;;;2.57;1.30;;;11.50;1.00;;;;;;5063932;28;20212;-74
2023/04/01 03:22:15;;;;;;;4.60;1.27;;;11.40;1.00;;;;;;5035895;28;20189;-74
2023/04/01 03:24:40;;;;;;;3.10;1.20;;;11.40;1.00;;;;;;5040650;28;20231;-73
2023/04/01 03:27:06;;;;;;;4.10;1.20;;;11.40;1.00;;;;;;5051255;28;20532;-73
2023/04/01 03:29:31;;;;;;;1.73;1.07;;;11.30;1.00;;;;;;5043168;28;20702;-73
2023/04/01 03:31:58;;;;;;;4.27;1.20;;;11.30;1.00;;;;;;5038776;28;20193;-73
2023/04/01 03:34:24;;;;;;;3.60;1.20;;;11.20;1.00;;;;;;5038323;28;20614;-73
2023/04/01 03:36:51;;;;;;;2.07;1.03;;;11.10;1.00;;;;;;5038489;28;20427;-73
2023/04/01 03:39:18;;;;;;;2.70;0.93;;;11.10;1.00;;;;;;5045544;28;20582;-74
2023/04/01 03:41:45;;;;;;;1.47;1.10;;;11.00;1.00;;;;;;5044734;28;20434;-74
2023/04/01 03:44:10;;;;;;;3.70;0.90;;;10.90;1.00;;;;;;5039921;28;20460;-73
2023/04/01 03:46:36;;;;;;;1.20;0.83;;;10.80;1.00;;;;;;5030629;28;20957;-74
2023/04/01 03:49:02;;;;;;;1.40;0.87;;;10.80;1.00;;;;;;5036342;28;20206;-73
2023/04/01 03:51:27;;;;;;;1.83;1.00;;;10.80;1.00;;;;;;5045109;28;20757;-73
2023/04/01 03:53:53;;;;;;;2.17;1.00;;;10.80;1.00;;;;;;5053573;28;20486;-74
2023/04/01 03:56:19;;;;;;;2.80;0.90;;;10.70;1.00;;;;;;5040948;28;20185;-73
2023/04/01 03:58:44;;;;;;;3.60;1.13;;;10.70;1.00;;;;;;5042232;28;20196;-75
2023/04/01 04:01:18;;;;;;;1.37;0.80;;;10.70;1.00;;;;;;5037495;28;20194;-73
2023/04/01 04:03:44;;;;;;;1.37;1.00;;;10.70;1.00;;;;;;5037313;28;20227;-73
2023/04/01 04:06:18;;;;;;;3.27;0.90;;;10.70;1.00;;;;;;5032094;28;20452;-74
2023/04/01 04:08:44;;;;;;;3.40;1.30;;;10.70;1.00;;;;;;5039829;28;20188;-73
2023/04/01 04:11:10;;;;;;;6.83;1.10;;;10.70;1.00;;;;;;5036269;28;20454;-73
2023/04/01 04:13:35;;;;;;;3.40;1.10;;;10.70;1.00;;;;;;5042320;28;20439;-74
2023/04/01 04:16:02;;;;;;;2.20;1.10;;;10.60;1.00;;;;;;5029494;28;20261;-73
2023/04/01 04:18:27;;;;;;;2.70;1.10;;;10.60;1.00;;;;;;5050190;28;20185;-74
2023/04/01 04:20:53;;;;;;;2.03;1.00;;;10.60;1.00;;;;;;5045103;28;20463;-73
2023/04/01 04:23:19;;;;;;;2.33;1.13;;;10.60;1.00;;;;;;5041802;28;20186;-73
2023/04/01 04:25:56;;;;;;;2.83;1.30;;;10.50;1.00;;;;;;5039960;28;20212;-73
2023/04/01 04:28:21;;;;;;;3.40;1.10;;;10.50;1.00;;;;;;5041556;28;20184;-73
2023/04/01 04:30:47;;;;;;;2.60;1.40;;;10.40;1.00;;;;;;5040980;28;20468;-73
2023/04/01 04:33:12;;;;;;;1.60;1.20;;;10.30;1.00;;;;;;5055155;28;20181;-73
2023/04/01 04:35:38;;;;;;;1.30;0.90;;;10.30;1.00;;;;;;5038163;28;20177;-73
2023/04/01 04:38:03;;;;;;;3.07;1.30;;;10.20;1.00;;;;;;5030651;28;20193;-73
2023/04/01 04:40:29;;;;;;;4.70;1.10;;;10.20;1.00;;;;;;5045795;28;20268;-73
2023/04/01 04:42:54;;;;;;;2.57;0.97;;;10.20;1.00;;;;;;5033180;28;20185;-73
2023/04/01 04:45:20;;;;;;;1.93;1.00;;;10.10;1.00;;;;;;5041680;28;20229;-75
2023/04/01 04:47:45;;;;;;;3.90;1.20;;;10.10;1.00;;;;;;5036106;28;20188;-73
2023/04/01 04:50:11;;;;;;;4.63;1.10;;;10.10;1.00;;;;;;5047911;28;20623;-74
2023/04/01 04:52:37;;;;;;;2.80;1.20;;;10.00;1.00;;;;;;5034048;28;20706;-73
2023/04/01 04:55:02;;;;;;;1.73;1.00;;;10.10;1.00;;;;;;5040427;28;20203;-73
2023/04/01 04:57:28;;;;;;;7.23;1.57;;;10.10;1.00;;;;;;5034943;28;20192;-73
2023/04/01 04:59:53;;;;;;;4.83;1.53;;;10.10;1.00;;;;;;5046031;28;20579;-74
2023/04/01 05:02:19;;;;;;;2.97;1.10;;;10.10;1.00;;;;;;5036273;28;20193;-73
2023/04/01 05:04:45;;;;;;;2.13;1.00;;;10.20;1.00;;;;;;5041173;28;20212;-73
2023/04/01 05:07:10;;;;;;;2.70;1.20;;;10.20;1.00;;;;;;5049325;28;20274;-74
2023/04/01 05:09:36;;;;;;;1.80;1.10;;;10.30;1.00;;;;;;5034739;28;20202;-73
2023/04/01 05:12:02;;;;;;;2.00;1.00;;;10.30;1.00;;;;;;5032934;28;20220;-74
2023/04/01 05:14:27;;;;;;;3.30;1.10;;;10.40;1.00;;;;;;5037486;28;20652;-73
2023/04/01 05:16:54;;;;;;;2.70;1.40;;;10.40;1.00;;;;;;5035764;28;20660;-73
2023/04/01 05:19:20;;;;;;;1.93;1.17;;;10.50;1.00;;;;;;5032490;28;20220;-73
2023/04/01 05:21:45;;;;;;;7.57;1.80;;;10.60;1.00;;;;;;5035016;28;20463;-73
2023/04/01 05:24:11;;;;;;;1.80;1.20;;;10.60;1.00;;;;;;5027491;28;20481;-74
2023/04/01 05:26:37;;;;;;;7.30;1.20;;;10.60;1.00;;;;;;5043717;28;20592;-74
2023/04/01 05:29:03;;;;;;;1.83;1.00;;;10.70;1.00;;;;;;5045309;28;20915;-75
2023/04/01 05:31:29;;;;;;;5.00;1.23;;;10.70;1.00;;;;;;5035700;28;20177;-74
2023/04/01 05:33:55;;;;;;;2.97;1.00;;;10.80;1.00;;;;;;5044717;28;20416;-73
2023/04/01 05:36:21;;;;;;;4.70;1.43;;;10.80;1.00;;;;;;5044970;28;20803;-77
2023/04/01 05:38:47;;;;;;;5.10;1.30;;;11.00;1.00;;;;;;5034558;28;20197;-74
2023/04/01 05:41:13;;;;;;;4.90;1.10;;;11.00;1.00;;;;;;5033376;28;20227;-75
2023/04/01 05:43:39;;;;;;;4.00;1.20;;;11.00;1.00;;;;;;5034864;28;20173;-75
2023/04/01 05:46:05;;;;;;;3.93;1.63;;;11.00;1.00;;;;;;5040304;28;20525;-74
2023/04/01 05:48:34;;;;;;;3.90;1.33;;;11.00;1.00;;;;;;5040874;28;20522;-75
2023/04/01 05:51:00;;;;;;;8.50;1.20;;;11.10;1.00;;;;;;5036604;28;20209;-75
2023/04/01 05:53:26;;;;;;;3.50;1.30;;;11.00;1.00;;;;;;5046171;28;20416;-75
2023/04/01 05:55:51;;;;;;;3.00;1.17;;;11.10;1.00;;;;;;5058951;28;20518;-75
2023/04/01 05:58:17;;;;;;;7.80;1.40;;;11.00;1.00;;;;;;5054443;28;20651;-74
2023/04/01 06:00:43;;;;;;;3.43;1.23;;;11.00;1.00;;;;;;5046516;28;20212;-75
2023/04/01 06:03:08;;;;;;;2.47;1.20;;;11.10;1.00;;;;;;5028453;28;20628;-75
2023/04/01 06:05:42;;;;;;;2.80;1.20;;;11.10;1.00;;;;;;5043413;28;20652;-74
2023/04/01 06:08:15;;;;;;;4.47;2.17;;;11.10;1.00;;;;;;5038506;28;20200;-74
2023/04/01 06:11:18;;;;;;;5.73;1.40;;;11.20;1.00;;;;;;5046257;28;20522;-75
2023/04/01 06:14:19;;;;;;;7.00;1.47;;;11.20;1.00;;;;;;5031211;28;20442;-75
2023/04/01 06:17:07;;;;;;;2.90;1.23;;;11.20;1.00;;;;;;5036451;28;21146;-74
2023/04/01 06:19:45;;;;;;;2.47;1.10;;;11.20;1.00;;;;;;5027106;28;20980;-74
2023/04/01 06:22:42;;;;;;;3.27;1.33;;;11.30;1.00;;;;;;5047682;28;20758;-75
2023/04/01 06:25:29;;;;;;;1.97;1.40;;;11.40;1.00;;;;;;5037641;28;20463;-74
2023/04/01 06:28:14;;;;;;;4.40;1.30;;;11.40;1.00;;;;;;5055526;28;20925;-74
2023/04/01 06:31:00;;;;;;;4.77;1.50;;;11.40;1.00;;;;;;5035082;28;20451;-74
2023/04/01 06:33:32;;;;;;;4.57;1.27;;;11.40;1.00;;;;;;5041339;28;20482;-75
2023/04/01 06:36:01;;;;;;;9.63;1.53;;;11.40;1.00;;;;;;5053069;28;20419;-74
2023/04/01 06:38:45;;;;;;;4.93;1.30;;;11.30;1.00;;;;;;5044835;28;20496;-75
2023/04/01 06:41:40;;;;;;;4.10;1.20;;;11.20;1.00;;;;;;5037845;28;20447;-75
2023/04/01 06:44:16;;;;;;;3.43;1.00;;;11.10;1.00;;;;;;5025774;28;20945;-75
2023/04/01 06:46:46;;;;;;;6.17;1.30;;;11.00;1.00;;;;;;5031537;28;20945;-74
2023/04/01 06:49:41;;;;;;;2.70;1.03;;;10.90;1.00;;;;;;5049283;28;20448;-75
2023/04/01 06:52:46;;;;;;;2.47;1.10;;;10.80;1.00;;;;;;5030388;28;20534;-74
2023/04/01 06:55:52;;;;;;;2.77;1.10;;;10.70;1.00;;;;;;5011984;28;20431;-73
2023/04/01 06:58:22;;;;;;;5.57;1.17;;;10.50;1.00;;;;;;5055625;28;20423;-75
2023/04/01 07:00:53;;;;;;;6.13;1.57;;;10.50;1.00;;;;;;5038625;28;20464;-74
2023/04/01 07:03:26;;;;;;;3.93;1.20;;;10.50;1.00;;;;;;5040355;28;20437;-74
2023/04/01 07:05:53;;;;;;;5.37;1.40;;;10.40;1.00;;;;;;5046772;28;22057;-75
2023/04/01 07:08:24;;;;;;;2.63;1.30;;;10.50;1.00;;;;;;5051593;28;20502;-74
2023/04/01 07:11:01;;;;;;;2.67;1.13;;;10.50;1.00;;;;;;5044860;28;20470;-74
2023/04/01 07:14:02;;;;;;;1.93;1.23;;;10.50;1.00;;;;;;5045709;28;20945;-74
2023/04/01 07:17:00;;;;;;;2.47;1.17;;;10.50;1.00;;;;;;5038496;28;20487;-75
2023/04/01 07:19:42;;;;;;;3.13;1.13;;;10.40;1.00;;;;;;5048205;28;20436;-74
2023/04/01 07:22:21;;;;;;;2.37;1.47;;;10.50;1.00;;;;;;5057513;28;20443;-74
2023/04/01 07:24:48;;;;;;;5.30;1.10;;;10.50;1.00;;;;;;5045473;28;20467;-75
2023/04/01 07:27:14;;;;;;;4.30;1.20;;;10.50;1.00;;;;;;5043107;28;21040;-72
2023/04/01 07:29:40;;;;;;;5.53;1.00;;;10.60;1.00;;;;;;5051936;28;20454;-74
2023/04/01 07:32:34;;;;;;;2.63;1.23;;;10.50;1.00;;;;;;5035588;28;20432;-74
2023/04/01 07:35:35;;;;;;;3.17;1.20;;;10.60;1.00;;;;;;5045000;28;20284;-75
2023/04/01 07:38:19;;;;;;;2.57;1.30;;;10.60;1.00;;;;;;5036328;28;20539;-74
2023/04/01 07:41:08;;;;;;;4.43;1.47;;;10.70;1.00;;;;;;5031900;28;20870;-74
2023/04/01 07:43:33;;;;;;;2.40;1.13;;;10.70;1.00;;;;;;5036206;28;20791;-76
2023/04/01 07:46:14;;;;;;;3.53;0.90;;;10.60;1.00;;;;;;5034599;28;20459;-75
2023/04/01 07:48:56;;;;;;;2.70;1.03;;;10.40;1.00;;;;;;5039925;28;20254;-80
2023/04/01 07:51:37;;;;;;;1.63;0.87;;;10.40;1.00;;;;;;5037693;28;20435;-74
2023/04/01 07:54:09;;;;;;;2.60;1.70;;;10.50;1.00;;;;;;5039850;28;20427;-74
2023/04/01 07:56:45;;;;;;;2.90;1.20;;;10.70;1.00;;;;;;5051280;28;20538;-75
2023/04/01 07:59:26;;;;;;;2.57;1.70;;;10.80;1.00;;;;;;5032817;28;20969;-76
2023/04/01 08:02:21;;;;;;;1.93;0.80;;;10.90;1.00;;;;;;5028028;28;20489;-74
2023/04/01 08:05:07;;;;;;;2.20;1.10;;;11.00;1.00;;;;;;5038097;28;20458;-74
2023/04/01 08:08:00;;;;;;;2.13;1.30;;;11.00;1.00;;;;;;5029943;28;20436;-75
2023/04/01 08:10:31;;;;;;;2.03;1.03;;;11.00;1.00;;;;;;5039931;28;20961;-75
2023/04/01 08:13:23;;;;;;;2.60;1.00;;;11.10;1.00;;;;;;5038869;28;20966;-74
2023/04/01 08:16:04;;;;;;;2.33;1.00;;;11.10;1.00;;;;;;5029112;28;20470;-74
2023/04/01 08:19:07;;;;;;;1.87;1.10;;;11.20;1.00;;;;;;5037675;28;20585;-74
2023/04/01 08:21:40;;;;;;;2.83;1.47;;;11.20;1.00;;;;;;5028114;28;20467;-74
2023/04/01 08:24:35;;;;;;;6.27;1.00;;;11.20;1.00;;;;;;5046282;28;20527;-75
2023/04/01 08:27:09;;;;;;;2.00;1.23;;;11.20;1.00;;;;;;5021751;28;20459;-76
2023/04/01 08:29:46;;;;;;;2.33;0.90;;;11.30;1.00;;;;;;5035161;28;20447;-78
2023/04/01 08:32:27;;;;;;;2.30;1.20;;;12.20;1.00;;;;;;5044582;28;20438;-75
2023/04/01 08:35:11;;;;;;;2.13;1.10;;;12.10;1.00;;;;;;5039907;28;20478;-79
2023/04/01 08:37:41;;;;;;;1.53;1.13;;;12.00;1.00;;;;;;5043010;28;20435;-79
2023/04/01 08:40:31;;;;;;;2.27;1.00;;;13.90;1.00;;;;;;5045978;28;20489;-76
2023/04/01 08:43:14;;;;;;;2.33;1.10;;;12.80;1.00;;;;;;5034096;28;20571;-75
2023/04/01 08:46:03;;;;;;;2.53;1.13;;;12.20;1.00;;;;;;5047954;28;20551;-76
2023/04/01 08:49:06;;;;;;;4.33;1.10;;;11.80;1.00;;;;;;5048388;28;20542;-74
2023/04/01 08:52:09;;;;;;;2.50;0.90;;;11.50;1.00;;;;;;5029496;28;20490;-74
2023/04/01 08:54:56;;;;;;;2.13;1.13;;;11.30;1.00;;;;;;5045281;28;20514;-75
2023/04/01 08:57:52;;;;;;;1.20;0.90;;;11.30;1.00;;;;;;5050846;28;20814;-77
2023/04/01 09:00:46;;;;;;;1.60;1.07;;;11.50;1.00;;;;;;5033443;28;20518;-77
2023/04/01 09:03:30;;;;;;;1.83;1.00;;;11.40;1.00;;;;;;5032086;28;20821;-77
2023/04/01 09:05:56;;;;;;;3.13;1.13;;;11.30;1.00;;;;;;5040049;28;20472;-76
2023/04/01 09:08:42;;;;;;;4.43;1.40;;;11.20;1.00;;;;;;5049323;28;20424;-77
2023/04/01 09:11:30;;;;;;;3.53;1.00;;;11.30;1.00;;;;;;5038727;28;20212;-77
2023/04/01 09:14:05;;;;;;;3.87;1.20;;;11.20;1.00;;;;;;5032385;28;20419;-75
2023/04/01 09:17:20;;;;;;;1.73;1.00;;;11.30;1.00;;;;;;5040097;28;20469;-77
2023/04/01 09:20:17;;;;;;;1.80;1.10;;;11.20;1.00;;;;;;5065200;28;20470;-77
2023/04/01 09:22:57;;;;;;;2.80;1.60;;;11.40;1.00;;;;;;5049542;28;20432;-76
2023/04/01 09:25:51;;;;;;;2.93;1.00;;;11.50;1.00;;;;;;5043634;28;20557;-77
2023/04/01 09:28:35;;;;;;;2.30;0.90;;;11.60;1.00;;;;;;5056461;28;20432;-77
2023/04/01 09:31:38;;;;;;;3.73;1.00;;;11.60;1.00;;;;;;5044330;28;20448;-76
2023/04/01 09:34:06;;;;;;;5.70;1.20;;;11.50;1.00;;;;;;5049969;28;20427;-77
2023/04/01 09:36:32;;;;;;;3.53;1.17;;;11.60;1.00;;;;;;5049604;28;20435;-76
2023/04/01 09:39:13;;;;;;;2.17;1.20;;;11.60;1.00;;;;;;5048225;28;20901;-77
2023/04/01 09:42:15;;;;;;;4.40;1.10;;;11.60;1.00;;;;;;5049460;28;20180;-77
2023/04/01 09:45:09;;;;;;;2.20;1.20;;;11.60;1.00;;;;;;5043581;28;20462;-77
2023/04/01 09:48:05;;;;;;;2.07;1.20;;;11.60;1.00;;;;;;5049405;28;20972;-77
2023/04/01 09:50:35;;;;;;;1.20;1.10;;;11.60;1.00;;;;;;5047795;28;20450;-76
2023/04/01 09:53:12;;;;;;;2.90;1.37;;;11.60;1.00;;;;;;5038712;28;20435;-76
2023/04/01 09:56:11;;;;;;;1.97;1.13;;;11.60;1.00;;;;;;5049310;28;20498;-77
2023/04/01 09:59:14;;;;;;;3.30;0.90;;;11.60;1.00;;;;;;5049100;28;20438;-77
2023/04/01 10:02:11;;;;;;;1.90;1.00;;;11.60;1.00;;;;;;5049290;28;20455;-77
2023/04/01 10:05:11;;;;;;;2.50;1.20;;;11.60;1.00;;;;;;5047718;28;20894;-77
2023/04/01 10:08:14;;;;;;;2.10;1.20;;;11.50;1.00;;;;;;5040408;28;20431;-77
2023/04/01 10:11:10;;;;;;;2.60;1.47;;;11.60;1.00;;;;;;5054749;28;20455;-77
2023/04/01 10:14:01;;;;;;;1.30;1.03;;;11.70;1.00;;;;;;5046002;28;20424;-76
2023/04/01 10:16:42;;;;;;;1.97;1.00;;;11.70;1.00;;;;;;5035039;28;20424;-77
2023/04/01 10:19:21;;;;;;;2.03;1.10;;;11.70;1.00;;;;;;5042031;28;20452;-77
2023/04/01 10:21:56;;;;;;;2.17;1.10;;;11.80;1.00;;;;;;5037963;28;20455;-77
2023/04/01 10:24:30;;;;;;;1.40;1.30;;;11.70;1.00;;;;;;5052468;28;20494;-77
2023/04/01 10:27:06;;;;;;;2.80;1.10;;;11.80;1.00;;;;;;5046780;28;20430;-76
2023/04/01 10:30:15;;;;;;;1.70;1.10;;;11.90;1.00;;;;;;5042923;28;20443;-76
2023/04/01 10:33:33;;;;;;;2.27;1.30;;;11.90;1.00;;;;;;5050912;28;20412;-77
2023/04/01 10:36:16;;;;;;;1.30;1.00;;;11.90;1.00;;;;;;5040693;28;20427;-77
2023/04/01 10:39:20;;;;;;;2.03;1.00;;;11.90;1.00;;;;;;5026488;28;20440;-76
2023/04/01 10:42:23;;;;;;;1.87;1.10;;;11.90;1.00;;;;;;5033808;28;20485;-76
2023/04/01 10:45:03;;;;;;;1.70;1.27;;;12.10;1.00;;;;;;5039479;28;20502;-80
2023/04/01 10:48:07;;;;;;;1.80;1.30;;;12.30;1.00;;;;;;5040156;28;20489;-78
2023/04/01 10:50:47;;;;;;;2.00;1.77;;;12.20;1.00;;;;;;5039269;28;20505;-77
2023/04/01 10:53:40;;;;;;;1.87;1.10;;;12.20;1.00;;;;;;5032802;28;20423;-78
2023/04/01 10:56:37;;;;;;;2.70;1.10;;;12.00;1.00;;;;;;5044567;28;20436;-77
2023/04/01 10:59:20;;;;;;;1.53;1.10;;;12.00;1.00;;;;;;5028352;28;20513;-77
2023/04/01 11:02:13;;;;;;;1.90;1.00;;;11.90;1.00;;;;;;5052415;28;20427;-77
2023/04/01 11:05:16;;;;;;;1.30;1.10;;;11.80;1.00;;;;;;5036009;28;20870;-77
2023/04/01 11:08:02;;;;;;;2.17;1.07;;;11.90;1.00;;;;;;5044802;28;20454;-77
2023/04/01 11:10:49;;;;;;;1.17;0.90;;;11.90;1.00;;;;;;5049887;28;20532;-75
2023/04/01 11:13:39;;;;;;;1.20;1.10;;;11.90;1.00;;;;;;5045303;28;20823;-83
2023/04/01 11:16:42;;;;;;;1.20;1.00;;;11.80;1.00;;;;;;5045384;28;20546;-77
2023/04/01 11:19:38;;;;;;;1.97;1.00;;;12.00;1.00;;;;;;5040469;28;20458;-75
2023/04/01 11:22:25;;;;;;;1.87;1.67;;;12.00;1.00;;;;;;5035360;28;20447;-76
2023/04/01 11:25:18;;;;;;;1.50;1.37;;;12.00;1.00;;;;;;5039813;28;20463;-77
2023/04/01 11:27:59;;;;;;;1.30;1.07;;;12.00;1.00;;;;;;5033922;28;20443;-80
2023/04/01 11:30:53;;;;;;;2.53;1.00;;;12.10;1.00;;;;;;5039154;28;20547;-76
2023/04/01 11:33:49;;;;;;;1.27;1.00;;;12.00;1.00;;;;;;5040659;28;20432;-75
2023/04/01 11:36:14;;;;;;;2.13;1.37;;;12.00;1.00;;;;;;5041787;28;20536;-76
2023/04/01 11:38:46;;;;;;;1.70;1.10;;;11.90;1.00;;;;;;5046446;28;20507;-75
2023/04/01 11:41:32;;;;;;;1.23;0.90;;;11.90;1.00;;;;;;5030674;28;20189;-75
2023/04/01 11:44:07;;;;;;;1.83;1.17;;;11.90;1.00;;;;;;5028212;28;20435;-75
2023/04/01 11:46:56;;;;;;;2.10;1.20;;;11.90;1.00;;;;;;5037796;28;20439;-75
2023/04/01 11:49:49;;;;;;;3.00;0.90;;;11.80;1.00;;;;;;5027460;28;20552;-75
2023/04/01 11:52:31;;;;;;;1.87;1.00;;;11.90;1.00;;;;;;5028682;28;20436;-74
2023/04/01 11:55:32;;;;;;;4.10;1.20;;;12.00;1.00;;;;;;5030898;28;20428;-74
2023/04/01 11:58:25;;;;;;;1.10;0.90;;;12.00;1.00;;;;;;5032587;28;20428;-74
2023/04/01 12:00:58;;;;;;;1.30;0.90;;;12.20;1.00;;;;;;5038293;28;21047;-74
2023/04/01 12:03:48;;;;;;;3.20;1.10;;;12.00;1.00;;;;;;5034497;28;20465;-76
2023/04/01 12:06:21;;;;;;;1.50;1.00;;;12.20;1.00;;;;;;5041012;28;20460;-77
2023/04/01 12:09:08;;;;;;;1.40;1.10;;;12.20;1.00;;;;;;5036214;28;20506;-74
2023/04/01 12:12:02;;;;;;;1.87;1.00;;;12.20;1.00;;;;;;5027233;28;20444;-75
2023/04/01 12:14:43;;;;;;;1.40;1.00;;;12.10;1.00;;;;;;5043163;28;20464;-75
2023/04/01 12:17:39;;;;;;;1.10;0.90;;;12.00;1.00;;;;;;5088623;22;20542;-75
2023/04/01 12:25:27;;;;;;;2.03;1.00;;;12.30;1.00;;;;;;5613019;22;20841;-76
2023/04/01 12:28:20;;;;;;;1.70;1.27;;;12.10;1.00;;;;;;4998655;28;20473;-77
2023/04/01 12:41:13;;;;;;;1.20;1.00;;;12.60;1.00;;;;;;5447024;22;22019;-77
2023/04/01 12:44:11;;;;;;;1.10;0.90;;;12.50;1.00;;;;;;5008433;28;20450;-77
2023/04/01 12:47:17;;;;;;;2.17;0.93;;;12.40;1.00;;;;;;5009186;28;20999;-81
2023/04/01 12:49:51;;;;;;;1.50;1.27;;;12.30;1.00;;;;;;5008640;28;20459;-78
2023/04/01 12:52:43;;;;;;;7.30;2.40;;;12.30;1.00;;;;;;5594693;22;20483;-78
2023/04/01 12:55:25;;;;;;;1.63;1.10;;;12.30;1.00;;;;;;5527221;23;20539;-77
2023/04/01 12:57:53;;;;;;;1.10;0.90;;;12.40;1.00;;;;;;5011801;28;20429;-80
2023/04/01 13:05:47;;;;;;;2.00;1.10;;;12.50;1.00;;;;;;5754585;22;20611;-77
2023/04/01 13:08:28;;;;;;;2.50;1.97;;;12.50;1.00;;;;;;5009310;28;20422;-76
2023/04/01 13:11:33;;;;;;;1.30;1.10;;;12.60;1.00;;;;;;5001639;28;20792;-77
2023/04/01 13:14:21;;;;;;;2.90;1.10;;;12.70;1.00;;;;;;5004022;28;20434;-79
2023/04/01 13:17:13;;;;;;;1.60;0.97;;;12.80;1.00;;;;;;5006641;28;20806;-77
2023/04/01 13:19:39;;;;;;;1.50;1.20;;;;;;;;;;5066944;22;20514;-77
2023/04/01 13:22:15;;;;;;;1.57;1.27;;;13.00;1.00;;;;;;5025004;28;21144;-76
2023/04/01 13:25:05;;;;;;;1.63;1.10;;;13.10;1.00;;;;;;5019647;28;20892;-76
2023/04/01 13:27:39;;;;;;;3.90;1.40;;;13.10;1.00;;;;;;5027025;28;20468;-76
2023/04/01 13:30:23;;;;;;;1.60;1.00;;;13.00;1.00;;;;;;5032132;28;20455;-76
2023/04/01 13:33:14;;;;;;;1.10;1.00;;;13.10;1.00;;;;;;5036243;28;21832;-76
2023/04/01 13:36:09;;;;;;;3.53;1.03;;;13.10;1.00;;;;;;5014619;28;20966;-76
2023/04/01 13:38:58;;;;;;;1.53;1.00;;;13.10;1.00;;;;;;5031252;28;20435;-76
2023/04/01 13:42:00;;;;;;;3.00;1.20;;;13.10;1.00;;;;;;5019736;28;20579;-76
2023/04/01 13:44:43;;;;;;;1.97;1.20;;;12.80;1.00;;;;;;5020169;28;20469;-76
2023/04/01 13:47:27;;;;;;;1.60;1.00;;;12.50;1.00;;;;;;5030890;28;20775;-76
2023/04/01 13:50:17;;;;;;;3.03;1.00;;;12.60;1.00;;;;;;5031902;28;20455;-76
2023/04/01 13:53:03;;;;;;;1.40;0.97;;;12.60;1.00;;;;;;5040008;28;20516;-76
2023/04/01 13:55:55;;;;;;;1.70;1.40;;;12.60;1.00;;;;;;5018642;28;20507;-76
2023/04/01 13:58:50;;;;;;;1.20;1.03;;;12.70;1.00;;;;;;5027507;28;20427;-76
2023/04/01 14:01:41;;;;;;;1.57;1.30;;;12.80;1.00;;;;;;5022821;28;20463;-77
2023/04/01 14:04:11;;;;;;;1.60;1.30;;;13.00;1.00;;;;;;5030914;28;20957;-77
2023/04/01 14:06:46;;;;;;;1.47;1.20;;;13.20;1.00;;;;;;5037664;28;20572;-76
2023/04/01 14:09:30;;;;;;;1.97;1.20;;;13.30;1.00;;;;;;5035340;28;20418;-76
2023/04/01 14:12:08;;;;;;;2.77;1.50;;;13.10;1.00;;;;;;5019351;28;20440;-77
2023/04/01 14:14:47;;;;;;;2.10;1.53;;;13.00;1.00;;;;;;5018220;28;20444;-77
2023/04/01 14:17:27;;;;;;;5.70;4.10;;;13.00;1.00;;;;;;5029769;28;20420;-77
2023/04/01 14:20:11;;;;;;;1.53;1.37;;;12.80;1.00;;;;;;5028099;28;20796;-76
2023/04/01 14:23:00;;;;;;;2.13;1.60;;;12.60;1.00;;;;;;5023152;28;20457;-77
2023/04/01 14:25:58;;;;;;;2.00;1.80;;;13.00;1.00;;;;;;5013590;28;20560;-77
2023/04/01 14:29:00;;;;;;;3.27;1.70;;;12.80;1.00;;;;;;5014812;28;20843;-77
2023/04/01 14:32:03;;;;;;;2.43;1.10;;;12.80;1.00;;;;;;5021528;28;20451;-76
2023/04/01 14:34:52;;;;;;;2.13;1.80;;;12.80;1.00;;;;;;5017579;28;20435;-76
2023/04/01 14:37:42;;;;;;;3.60;2.27;;;12.70;1.00;;;;;;5034343;28;20766;-75
2023/04/01 14:40:28;;;;;;;3.10;2.10;;;12.70;1.00;;;;;;5028066;28;20847;-76
2023/04/01 14:43:10;;;;;;;3.00;2.00;;;12.70;1.00;;;;;;5033316;28;20470;-76
2023/04/01 14:46:11;;;;;;;4.17;2.23;;;12.70;1.00;;;;;;5028360;28;20731;-76
2023/04/01 14:48:48;;;;;;;1.80;1.33;;;12.70;1.00;;;;;;5033100;28;20436;-76
2023/04/01 14:51:37;;;;;;;1.70;1.27;;;12.50;1.00;;;;;;5033555;28;20501;-76
2023/04/01 14:54:29;;;;;;;1.40;1.20;;;12.60;1.00;;;;;;5025540;28;20439;-76
2023/04/01 14:57:13;;;;;;;3.10;1.53;;;12.60;1.00;;;;;;5051482;28;20436;-76
2023/04/01 14:59:48;;;;;;;2.53;1.20;;;12.70;1.00;;;;;;5014791;28;20433;-75
2023/04/01 15:02:46;;;;;;;2.10;1.17;;;12.70;1.00;;;;;;5034498;28;20530;-76
2023/04/01 15:05:25;;;;;;;1.10;1.00;;;12.60;1.00;;;;;;5017254;28;20567;-76
2023/04/01 15:07:56;;;;;;;1.93;1.20;;;12.60;1.00;;;;;;5032414;28;20429;-76
2023/04/01 15:11:09;;;;;;;1.43;1.10;;;12.40;1.00;;;;;;5043221;28;20439;-76
2023/04/01 15:13:58;;;;;;;1.60;1.37;;;12.30;1.00;;;;;;5005971;28;20524;-75
2023/04/01 15:17:17;;;;;;;1.77;1.40;;;12.40;1.00;;;;;;5033133;28;20514;-76
2023/04/01 15:20:04;;;;;;;2.40;1.30;;;12.60;1.00;;;;;;4957036;28;20543;-76
2023/04/01 15:22:56;;;;;;;2.13;1.33;;;12.70;1.00;;;;;;5031448;28;20985;-76
2023/04/01 15:25:56;;;;;;;1.10;0.90;;;12.70;1.00;;;;;;5040852;28;20566;-76
2023/04/01 15:28:50;;;;;;;1.30;1.20;;;12.50;1.00;;;;;;5033795;28;20440;-76
2023/04/01 15:31:27;;;;;;;1.20;1.07;;;12.60;1.00;;;;;;5023762;28;20480;-76
2023/04/01 15:34:01;;;;;;;1.50;1.13;;;12.50;1.00;;;;;;5031994;28;20518;-76
2023/04/01 15:36:53;;;;;;;3.40;1.20;;;12.60;1.00;;;;;;5026483;28;20432;-76
2023/04/01 15:39:31;;;;;;;2.00;1.03;;;12.40;1.00;;;;;;5023678;28;20456;-76
2023/04/01 15:41:59;;;;;;;4.23;1.30;;;12.40;1.00;;;;;;5044062;28;20468;-76
2023/04/01 15:44:33;;;;;;;2.57;1.47;;;12.40;1.00;;;;;;5033949;28;20516;-76
2023/04/01 15:47:08;;;;;;;3.77;1.20;;;12.40;1.00;;;;;;5012304;28;20436;-76
2023/04/01 15:49:45;;;;;;;2.10;1.20;;;12.40;1.00;;;;;;5026258;28;20416;-76
2023/04/01 15:52:20;;;;;;;1.77;1.20;;;12.40;1.00;;;;;;5020760;28;20433;-76
2023/04/01 15:55:04;;;;;;;1.67;1.30;;;12.50;1.00;;;;;;5027976;28;20600;-76
2023/04/01 15:57:47;;;;;;;1.70;1.30;;;12.50;1.00;;;;;;5028413;28;20515;-76
2023/04/01 16:00:26;;;;;;;2.10;1.50;;;12.40;1.00;;;;;;5022757;28;20543;-76
2023/04/01 16:03:13;;;;;;;2.63;2.03;;;12.50;1.00;;;;;;5033346;28;20427;-77
2023/04/01 16:06:10;;;;;;;2.80;2.00;;;12.50;1.00;;;;;;5041751;28;20459;-76
2023/04/01 16:08:53;;;;;;;2.70;1.90;;;12.50;1.00;;;;;;5034220;28;20802;-77